Time;durP1;ratioP1;P1;durP2;ratioP2;P2;SDS_P1;SDS_P2;PMS_P1;PMS_P2;Temp;Humidity;BMP_temperature;BMP_pressure;BME280_temperature;BME280_humidity;BME280_pressure;Samples;Min_cycle;Max_cycle;Signal;HPM_P1;HPM_P2
2021/12/16 00:01:59;;;;;;;7.07;4.78;;;7.90;90.60;;;;;;5088858;28;20073;-75
2021/12/16 00:09:59;;;;;;;5.75;4.32;;;7.90;91.00;;;;;;5083498;28;20537;-75
2021/12/16 00:34:01;;;;;;;5.55;3.97;;;8.00;90.90;;;;;;4989954;28;20029;-76
2021/12/16 00:36:29;;;;;;;5.10;3.63;;;8.00;91.10;;;;;;4988996;28;20042;-75
2021/12/16 00:38:55;;;;;;;5.15;4.00;;;8.10;90.90;;;;;;4986790;28;20503;-76
2021/12/16 00:41:21;;;;;;;5.47;4.03;;;8.10;90.80;;;;;;4987940;28;20038;-75
2021/12/16 00:44:34;;;;;;;5.85;4.07;;;8.10;90.70;;;;;;4987302;28;20022;-75
2021/12/16 00:54:43;;;;;;;5.10;3.70;;;8.20;90.90;;;;;;4988523;28;20129;-74
2021/12/16 00:57:13;;;;;;;6.30;4.80;;;8.20;90.90;;;;;;5004229;28;20381;-73
2021/12/16 00:59:43;;;;;;;5.78;4.13;;;8.20;90.70;;;;;;5090064;28;20553;-74
2021/12/16 01:07:52;;;;;;;5.38;4.15;;;8.30;90.80;;;;;;5089653;28;20594;-73
2021/12/16 01:38:31;;;;;;;6.38;4.75;;;8.10;90.70;;;;;;5074427;28;20047;-74
2021/12/16 01:51:53;;;;;;;6.00;4.22;;;8.10;91.00;;;;;;5092131;28;20064;-74
2021/12/16 01:57:19;;;;;;;6.32;4.72;;;8.00;91.00;;;;;;5114062;28;20033;-74
2021/12/16 01:59:56;;;;;;;5.72;4.32;;;8.10;90.90;;;;;;5113660;28;20023;-74
2021/12/16 02:02:45;;;;;;;7.35;4.57;;;8.10;91.10;;;;;;5111355;28;20043;-73
2021/12/16 02:10:36;;;;;;;6.03;4.30;;;8.00;90.80;;;;;;5112655;27;20030;-73
2021/12/16 02:37:47;;;;;;;7.25;5.35;;;8.20;91.10;;;;;;5101753;28;20161;-74
2021/12/16 02:40:14;;;;;;;7.28;4.90;;;8.10;91.30;;;;;;5114349;28;20550;-74
2021/12/16 02:42:54;;;;;;;6.28;4.60;;;8.20;90.90;;;;;;5113964;28;20023;-74
2021/12/16 02:50:50;;;;;;;7.68;5.45;;;8.20;91.00;;;;;;5112508;28;20027;-74
2021/12/16 02:53:15;;;;;;;7.38;5.38;;;8.20;90.90;;;;;;5112693;28;20395;-74
2021/12/16 02:55:41;;;;;;;7.25;5.20;;;8.20;90.90;;;;;;5111581;28;20044;-73
2021/12/16 02:58:07;;;;;;;7.80;5.15;;;8.20;90.90;;;;;;5114404;28;20034;-74
2021/12/16 03:00:38;;;;;;;7.68;5.18;;;8.10;90.70;;;;;;5112935;28;20023;-74
2021/12/16 03:03:04;;;;;;;7.15;4.93;;;8.10;90.90;;;;;;5109533;28;20100;-74
2021/12/16 03:05:30;;;;;;;8.50;6.05;;;8.10;91.00;;;;;;5107616;27;20156;-74
2021/12/16 03:07:56;;;;;;;9.68;6.40;;;8.20;90.90;;;;;;5111035;28;20026;-74
2021/12/16 03:13:41;;;;;;;9.85;6.80;;;8.10;91.00;;;;;;5114063;28;20040;-74
2021/12/16 03:20:59;;;;;;;8.60;5.90;;;8.10;91.10;;;;;;5111961;28;20042;-74
2021/12/16 03:36:48;;;;;;;;;;;8.10;90.90;;;;;;5111099;28;20027;-74
2021/12/16 03:39:15;;;;;;;8.65;5.60;;;8.10;90.90;;;;;;5111662;28;19915;-74
2021/12/16 03:41:41;;;;;;;9.57;6.20;;;8.10;91.00;;;;;;5111759;28;20087;-74
2021/12/16 03:44:14;;;;;;;8.63;5.50;;;8.00;91.20;;;;;;5111776;28;20444;-74
2021/12/16 03:46:45;;;;;;;9.55;6.25;;;8.10;91.30;;;;;;5076488;28;20050;-74
2021/12/16 03:49:19;;;;;;;8.05;5.78;;;8.10;91.10;;;;;;5112719;28;20408;-74
2021/12/16 03:51:52;;;;;;;7.65;5.03;;;8.10;91.10;;;;;;5106566;28;20040;-74
2021/12/16 03:54:22;;;;;;;9.75;5.78;;;8.10;91.20;;;;;;5109509;28;20381;-74
2021/12/16 03:56:48;;;;;;;8.45;5.68;;;8.10;90.90;;;;;;5111592;28;20416;-74
2021/12/16 03:59:19;;;;;;;9.65;6.25;;;8.00;91.00;;;;;;5111662;28;20024;-74
2021/12/16 04:01:45;;;;;;;8.43;5.65;;;8.00;91.10;;;;;;5111506;28;20047;-74
2021/12/16 04:04:11;;;;;;;8.35;5.75;;;8.00;91.20;;;;;;5118281;27;20015;-74
2021/12/16 04:06:38;;;;;;;9.90;6.57;;;8.00;91.10;;;;;;5112391;28;20429;-74
2021/12/16 04:09:09;;;;;;;9.60;5.63;;;8.00;91.40;;;;;;5105135;28;20016;-74
2021/12/16 04:11:42;;;;;;;7.63;5.20;;;8.00;91.40;;;;;;5108396;27;20039;-74
2021/12/16 04:14:11;;;;;;;7.53;5.50;;;8.20;91.50;;;;;;5111175;28;20337;-74
2021/12/16 04:16:57;;;;;;;8.52;5.70;;;8.10;91.30;;;;;;5095092;28;20066;-74
2021/12/16 04:19:30;;;;;;;7.70;5.70;;;8.20;91.10;;;;;;5110697;28;20443;-74
2021/12/16 04:22:19;;;;;;;9.25;6.15;;;8.00;91.00;;;;;;5113138;28;20080;-74
2021/12/16 04:24:48;;;;;;;7.38;4.68;;;8.00;91.10;;;;;;5112242;28;20078;-74
2021/12/16 04:27:16;;;;;;;7.75;5.28;;;8.00;91.30;;;;;;5091232;28;20103;-74
2021/12/16 04:29:42;;;;;;;9.32;6.13;;;8.00;91.40;;;;;;5110926;28;20689;-74
2021/12/16 04:32:09;;;;;;;7.78;5.95;;;8.10;91.30;;;;;;5109125;28;20511;-75
2021/12/16 04:34:35;;;;;;;6.57;4.57;;;8.00;91.30;;;;;;5110743;28;20028;-75
2021/12/16 04:37:01;;;;;;;6.57;4.53;;;8.00;91.30;;;;;;5112724;28;20030;-75
2021/12/16 04:39:29;;;;;;;6.40;4.75;;;8.10;91.80;;;;;;5088417;28;20111;-75
2021/12/16 04:41:57;;;;;;;7.50;4.97;;;8.20;91.60;;;;;;5108843;28;20023;-74
2021/12/16 04:44:25;;;;;;;6.80;5.18;;;8.20;91.30;;;;;;5110466;28;20057;-74
2021/12/16 04:46:51;;;;;;;7.00;4.78;;;8.30;91.20;;;;;;5092407;28;20061;-75
2021/12/16 04:49:17;;;;;;;6.45;4.43;;;8.20;91.30;;;;;;5111273;28;20023;-75
2021/12/16 04:51:50;;;;;;;7.35;4.50;;;8.40;91.40;;;;;;5111892;28;20106;-74
2021/12/16 04:54:19;;;;;;;7.68;4.78;;;8.30;91.30;;;;;;5110332;28;20047;-74
2021/12/16 04:56:46;;;;;;;6.85;5.18;;;8.50;91.40;;;;;;5092234;28;20392;-75
2021/12/16 04:59:15;;;;;;;7.55;4.93;;;8.30;91.00;;;;;;5109424;28;20034;-74
2021/12/16 05:01:45;;;;;;;7.13;4.88;;;8.40;91.00;;;;;;5109485;28;20020;-75
2021/12/16 05:04:11;;;;;;;7.82;6.07;;;8.30;91.20;;;;;;5111571;28;20032;-75
2021/12/16 05:06:37;;;;;;;7.38;5.18;;;8.30;91.10;;;;;;5108046;28;20388;-74
2021/12/16 05:09:05;;;;;;;8.05;5.57;;;8.30;91.40;;;;;;5110227;28;20091;-74
2021/12/16 05:11:34;;;;;;;9.35;6.20;;;8.30;91.20;;;;;;5110261;28;20047;-74
2021/12/16 05:14:00;;;;;;;8.02;5.90;;;8.30;91.20;;;;;;5110109;28;20016;-74
2021/12/16 05:16:26;;;;;;;7.25;4.93;;;8.30;91.40;;;;;;5091798;28;20023;-75
2021/12/16 05:18:55;;;;;;;10.50;6.78;;;8.40;91.40;;;;;;5118707;27;20038;-75
2021/12/16 05:24:15;;;;;;;8.32;5.78;;;8.50;91.10;;;;;;5098630;28;20028;-74
2021/12/16 05:24:25;;;;;;;7.80;5.35;;;8.60;91.40;;;;;;5106064;27;20462;-74
2021/12/16 05:26:59;;;;;;;7.28;5.15;;;8.60;91.20;;;;;;5116506;28;20016;-75
2021/12/16 05:29:25;;;;;;;8.43;5.78;;;8.60;91.20;;;;;;5098498;28;20019;-74
2021/12/16 05:31:53;;;;;;;8.73;6.20;;;8.60;91.20;;;;;;5116571;28;20038;-74
2021/12/16 05:34:19;;;;;;;7.90;6.20;;;8.70;91.30;;;;;;5117655;28;20030;-75
2021/12/16 05:36:45;;;;;;;7.78;5.43;;;8.70;91.10;;;;;;5118173;27;20037;-74
2021/12/16 05:39:12;;;;;;;7.88;5.38;;;8.70;91.10;;;;;;5098330;28;20102;-75
2021/12/16 05:41:39;;;;;;;7.47;5.32;;;8.70;90.70;;;;;;5116609;27;20023;-75
2021/12/16 05:44:04;;;;;;;7.57;5.47;;;8.60;90.80;;;;;;5115616;28;20095;-75
2021/12/16 05:46:30;;;;;;;8.60;5.97;;;8.60;91.00;;;;;;5098116;28;20126;-74
2021/12/16 05:48:57;;;;;;;6.93;5.38;;;8.60;90.90;;;;;;5118905;27;20031;-75
2021/12/16 05:51:33;;;;;;;7.30;5.43;;;8.60;90.80;;;;;;5116741;27;20030;-75
2021/12/16 05:54:02;;;;;;;7.13;5.10;;;8.50;90.70;;;;;;5098402;28;20035;-75
2021/12/16 05:56:28;;;;;;;6.78;4.60;;;8.50;90.90;;;;;;5116779;28;20023;-75
2021/12/16 05:58:53;;;;;;;6.45;4.70;;;8.50;91.10;;;;;;5116928;27;20442;-75
2021/12/16 06:01:26;;;;;;;7.40;5.45;;;8.60;91.20;;;;;;5115421;27;20035;-75
2021/12/16 06:03:53;;;;;;;6.75;5.13;;;8.50;91.00;;;;;;5117281;27;20084;-74
2021/12/16 06:06:21;;;;;;;8.00;5.45;;;8.60;90.90;;;;;;5116559;27;20449;-75
2021/12/16 06:08:47;;;;;;;7.22;5.55;;;8.50;90.80;;;;;;5098543;27;20048;-74
2021/12/16 06:11:23;;;;;;;7.57;5.38;;;8.50;90.90;;;;;;5116699;28;20555;-75
2021/12/16 06:14:04;;;;;;;7.05;5.80;;;8.50;91.00;;;;;;5116319;28;20069;-75
2021/12/16 06:27:32;;;;;;;8.07;4.68;;;8.50;91.00;;;;;;5116674;28;20034;-75
2021/12/16 06:29:58;;;;;;;7.65;5.10;;;8.50;91.30;;;;;;5112056;28;20106;-75
2021/12/16 06:32:25;;;;;;;8.77;5.50;;;8.60;91.20;;;;;;5113159;28;20023;-75
2021/12/16 06:34:53;;;;;;;8.68;6.70;;;8.60;90.90;;;;;;5113441;28;20396;-75
2021/12/16 06:37:19;;;;;;;7.45;5.05;;;8.60;91.10;;;;;;5113902;28;20024;-75
2021/12/16 06:39:44;;;;;;;7.72;5.90;;;8.60;90.90;;;;;;5114545;28;20031;-75
2021/12/16 06:42:11;;;;;;;7.60;5.45;;;8.60;91.00;;;;;;5113246;28;20135;-75
2021/12/16 06:44:47;;;;;;;8.25;6.00;;;8.50;90.90;;;;;;5112703;28;20020;-75
2021/12/16 06:47:20;;;;;;;7.80;5.30;;;8.50;91.00;;;;;;5094705;28;20027;-75
2021/12/16 06:49:48;;;;;;;8.43;5.93;;;8.60;91.10;;;;;;5113072;28;20023;-75
2021/12/16 06:52:17;;;;;;;7.22;5.47;;;8.60;91.10;;;;;;5114414;28;20034;-76
2021/12/16 06:55:01;;;;;;;8.50;5.63;;;8.70;91.20;;;;;;5112894;28;20051;-76
2021/12/16 06:57:52;;;;;;;10.77;6.05;;;8.70;91.30;;;;;;5112336;28;20491;-76
2021/12/16 07:00:35;;;;;;;7.80;5.75;;;8.70;90.90;;;;;;5112748;28;20026;-75
2021/12/16 07:03:04;;;;;;;7.70;5.28;;;8.70;91.10;;;;;;5110914;28;20034;-75
2021/12/16 07:05:35;;;;;;;8.32;5.70;;;8.80;91.10;;;;;;5111118;28;20059;-75
2021/12/16 07:08:03;;;;;;;10.25;6.70;;;8.80;90.80;;;;;;5112710;28;20469;-76
2021/12/16 07:10:29;;;;;;;8.70;6.35;;;8.60;90.80;;;;;;5112781;28;20035;-76
2021/12/16 07:12:57;;;;;;;10.50;5.90;;;8.70;91.00;;;;;;5113954;28;20411;-76
2021/12/16 07:15:28;;;;;;;10.32;5.63;;;8.70;91.00;;;;;;5112261;28;20019;-75
2021/12/16 07:17:55;;;;;;;8.30;5.28;;;8.70;91.00;;;;;;5112260;28;20449;-75
2021/12/16 07:20:28;;;;;;;7.93;5.20;;;8.70;91.00;;;;;;5112055;28;20055;-75
2021/12/16 07:22:55;;;;;;;8.50;5.53;;;8.70;91.10;;;;;;5112239;28;20103;-75
2021/12/16 07:25:21;;;;;;;8.38;5.53;;;8.80;91.10;;;;;;5112740;28;20062;-75
2021/12/16 07:27:47;;;;;;;8.35;5.22;;;8.80;91.10;;;;;;5113489;28;20047;-75
2021/12/16 07:30:17;;;;;;;7.95;5.18;;;8.80;91.00;;;;;;5112082;28;20024;-75
2021/12/16 07:32:45;;;;;;;9.52;5.25;;;8.80;91.00;;;;;;5112143;28;20039;-75
2021/12/16 07:35:16;;;;;;;8.90;5.25;;;8.80;91.10;;;;;;5112267;28;20051;-74
2021/12/16 07:37:43;;;;;;;7.50;4.82;;;8.80;90.80;;;;;;5105486;28;20097;-75
2021/12/16 07:40:11;;;;;;;9.63;5.30;;;8.90;90.90;;;;;;5113383;28;20024;-76
2021/12/16 07:43:10;;;;;;;7.45;5.28;;;8.80;91.00;;;;;;5110935;28;20442;-76
2021/12/16 07:45:24;;;;;;;11.27;6.22;;;8.90;91.00;;;;;;5111453;28;20032;-74
2021/12/16 07:47:49;;;;;;;8.85;5.38;;;8.80;90.90;;;;;;5111954;28;20039;-74
2021/12/16 07:50:16;;;;;;;9.40;5.28;;;8.70;90.80;;;;;;5111979;28;20024;-74
2021/12/16 07:52:41;;;;;;;9.18;5.25;;;8.70;90.80;;;;;;5112354;28;20059;-75
2021/12/16 07:55:10;;;;;;;8.45;5.60;;;8.80;90.90;;;;;;5113642;28;20488;-74
2021/12/16 07:57:36;;;;;;;9.45;5.65;;;8.70;90.90;;;;;;5112575;28;20041;-74
2021/12/16 08:00:06;;;;;;;10.68;6.32;;;8.70;91.00;;;;;;5111481;28;20027;-75
2021/12/16 08:02:32;;;;;;;8.88;5.82;;;8.60;90.80;;;;;;5111408;28;20604;-76
2021/12/16 08:04:57;;;;;;;7.32;5.00;;;8.60;90.80;;;;;;5111739;28;20051;-75
2021/12/16 08:07:23;;;;;;;7.72;5.20;;;8.60;91.00;;;;;;5111540;28;20022;-75
2021/12/16 08:09:50;;;;;;;8.30;5.72;;;8.50;91.10;;;;;;5113186;28;20106;-76
2021/12/16 08:12:17;;;;;;;7.78;5.07;;;8.50;91.50;;;;;;5111240;28;20067;-78
2021/12/16 08:14:45;;;;;;;7.13;5.03;;;8.60;91.00;;;;;;5111076;28;20023;-75
2021/12/16 08:17:11;;;;;;;7.55;4.80;;;8.50;90.90;;;;;;5110406;28;20588;-75
2021/12/16 08:19:37;;;;;;;8.07;5.38;;;8.60;91.20;;;;;;5110448;28;20520;-75
2021/12/16 08:22:04;;;;;;;9.48;5.60;;;8.60;91.20;;;;;;5094766;28;20027;-76
2021/12/16 08:24:29;;;;;;;7.28;4.72;;;8.60;90.90;;;;;;5110330;28;20035;-74
2021/12/16 08:26:55;;;;;;;6.63;4.82;;;8.50;91.10;;;;;;5111005;28;20024;-75
2021/12/16 08:29:21;;;;;;;7.65;5.50;;;8.60;91.00;;;;;;5110803;28;20027;-74
2021/12/16 08:31:48;;;;;;;5.60;4.18;;;8.60;90.70;;;;;;5092412;28;20519;-75
2021/12/16 08:34:15;;;;;;;6.10;4.05;;;8.40;90.80;;;;;;5112461;28;20027;-74
2021/12/16 08:36:40;;;;;;;6.60;4.47;;;8.50;91.00;;;;;;5112054;28;20395;-75
2021/12/16 08:39:08;;;;;;;5.32;3.80;;;8.50;91.10;;;;;;5110691;28;20031;-74
2021/12/16 08:41:43;;;;;;;5.25;3.88;;;8.50;91.00;;;;;;5110553;28;20042;-75
2021/12/16 08:44:10;;;;;;;4.97;3.60;;;8.60;91.00;;;;;;5111111;28;20019;-74
2021/12/16 08:46:40;;;;;;;4.70;3.45;;;8.60;90.90;;;;;;5111039;28;20120;-75
2021/12/16 08:49:07;;;;;;;5.90;3.70;;;8.60;90.60;;;;;;5112963;28;20096;-61
2021/12/16 08:51:38;;;;;;;5.32;3.65;;;8.60;90.60;;;;;;5110340;27;20035;-61
2021/12/16 08:54:05;;;;;;;4.70;3.38;;;8.70;90.60;;;;;;5109790;28;20118;-62
2021/12/16 08:56:31;;;;;;;5.88;4.10;;;8.70;90.40;;;;;;5110673;27;20028;-62
2021/12/16 08:59:00;;;;;;;7.32;4.15;;;8.80;91.00;;;;;;5110607;28;20020;-62
2021/12/16 09:01:29;;;;;;;5.88;3.60;;;8.80;90.30;;;;;;5092307;28;20016;-61
2021/12/16 09:03:56;;;;;;;4.95;3.40;;;8.80;90.30;;;;;;5112691;28;20047;-62
2021/12/16 09:06:22;;;;;;;5.63;3.78;;;8.80;90.20;;;;;;5110472;28;20058;-62
2021/12/16 09:08:48;;;;;;;4.70;3.58;;;8.80;90.10;;;;;;5110045;28;20023;-62
2021/12/16 09:11:20;;;;;;;4.22;3.20;;;9.00;90.20;;;;;;5110514;28;20453;-62
2021/12/16 09:13:47;;;;;;;5.95;3.80;;;8.90;90.30;;;;;;5110589;28;20046;-62
2021/12/16 09:16:17;;;;;;;5.45;3.83;;;9.00;90.20;;;;;;5093567;28;20048;-70
2021/12/16 09:18:43;;;;;;;4.65;3.70;;;9.00;90.00;;;;;;5111486;28;20065;-67
2021/12/16 09:21:15;;;;;;;6.10;3.83;;;9.00;90.00;;;;;;5104553;28;20016;-68
2021/12/16 09:23:44;;;;;;;4.75;3.33;;;9.00;89.80;;;;;;5108119;28;20051;-66
2021/12/16 09:26:10;;;;;;;4.28;3.42;;;9.00;89.80;;;;;;5109749;28;20026;-67
2021/12/16 09:28:37;;;;;;;5.70;3.17;;;9.00;89.80;;;;;;5094253;28;20072;-66
2021/12/16 09:31:10;;;;;;;6.50;3.33;;;9.10;89.90;;;;;;5112348;28;20022;-67
2021/12/16 09:33:41;;;;;;;5.00;3.22;;;9.10;89.60;;;;;;5110512;28;20043;-68
2021/12/16 09:36:07;;;;;;;4.50;3.08;;;9.10;89.70;;;;;;5109344;28;20051;-68
2021/12/16 09:38:32;;;;;;;4.85;3.53;;;9.10;89.00;;;;;;5109223;28;20054;-68
2021/12/16 09:40:59;;;;;;;4.40;3.15;;;9.10;88.50;;;;;;5110068;28;20425;-68
2021/12/16 09:43:30;;;;;;;5.07;3.28;;;9.10;89.10;;;;;;5110153;28;20027;-67
2021/12/16 09:46:00;;;;;;;4.90;2.97;;;9.10;89.20;;;;;;5112216;28;20024;-68
2021/12/16 09:48:25;;;;;;;4.45;3.08;;;9.10;88.90;;;;;;5110220;28;20024;-68
2021/12/16 09:50:53;;;;;;;4.90;3.00;;;9.10;89.30;;;;;;5109065;28;20514;-68
2021/12/16 09:53:20;;;;;;;5.35;3.05;;;9.10;89.00;;;;;;5108418;28;20082;-68
2021/12/16 09:55:56;;;;;;;5.22;3.15;;;9.10;88.10;;;;;;5109272;28;20036;-67
2021/12/16 09:58:22;;;;;;;5.05;3.30;;;9.10;88.50;;;;;;5109667;28;20114;-68
2021/12/16 10:00:48;;;;;;;4.50;2.83;;;9.10;88.60;;;;;;5111143;28;20149;-68
2021/12/16 10:03:13;;;;;;;3.88;2.70;;;9.20;87.90;;;;;;5109551;28;20480;-67
2021/12/16 10:05:40;;;;;;;3.70;2.65;;;9.10;87.40;;;;;;5094718;28;20034;-67
2021/12/16 10:08:08;;;;;;;4.28;2.58;;;9.20;88.20;;;;;;5113150;28;20066;-68
2021/12/16 10:10:34;;;;;;;4.15;3.10;;;9.30;88.30;;;;;;5113288;28;20065;-68
2021/12/16 10:13:02;;;;;;;5.38;3.05;;;9.30;87.50;;;;;;5114634;28;20032;-66
2021/12/16 10:18:04;;;;;;;5.15;2.90;;;9.40;88.40;;;;;;5112956;28;20467;-66
2021/12/16 10:20:33;;;;;;;4.72;3.03;;;9.40;88.00;;;;;;5112881;28;20045;-65
2021/12/16 10:23:14;;;;;;;5.15;2.97;;;9.50;87.30;;;;;;5112639;28;20387;-68
2021/12/16 10:25:48;;;;;;;5.43;3.35;;;9.40;86.70;;;;;;5109105;28;20453;-65
2021/12/16 10:28:23;;;;;;;6.25;3.70;;;9.30;86.50;;;;;;5114598;28;20020;-65
2021/12/16 10:30:55;;;;;;;5.68;3.42;;;9.30;86.50;;;;;;5113220;28;20511;-68
2021/12/16 10:33:26;;;;;;;4.53;3.53;;;9.30;86.20;;;;;;5111929;28;20035;-66
2021/12/16 10:36:19;;;;;;;5.75;3.28;;;9.40;86.80;;;;;;5112781;28;20028;-68
2021/12/16 10:38:51;;;;;;;4.72;3.53;;;9.30;86.60;;;;;;5112979;28;20088;-67
2021/12/16 10:41:37;;;;;;;5.20;3.42;;;9.30;86.10;;;;;;5113317;28;20106;-67
2021/12/16 10:44:17;;;;;;;4.68;3.30;;;9.40;86.20;;;;;;5113124;28;20110;-67
2021/12/16 10:46:49;;;;;;;4.97;3.58;;;9.40;86.10;;;;;;5097717;28;20050;-68
2021/12/16 10:49:23;;;;;;;4.95;3.22;;;9.50;86.70;;;;;;5114065;28;20028;-69
2021/12/16 10:51:56;;;;;;;5.15;2.92;;;9.40;85.90;;;;;;5112572;28;20039;-67
2021/12/16 10:54:34;;;;;;;4.80;3.35;;;9.50;85.90;;;;;;5112372;28;20039;-67
2021/12/16 10:57:13;;;;;;;3.88;3.25;;;9.50;85.10;;;;;;5112439;28;20027;-65
2021/12/16 10:59:52;;;;;;;4.35;3.30;;;9.50;85.30;;;;;;5094593;28;20043;-68
2021/12/16 11:02:29;;;;;;;4.60;3.30;;;9.40;85.00;;;;;;5100793;28;20050;-68
2021/12/16 11:05:02;;;;;;;3.90;3.10;;;9.50;85.90;;;;;;5107647;28;20068;-68
2021/12/16 11:07:31;;;;;;;4.57;3.50;;;9.60;85.20;;;;;;5111637;28;20440;-69
2021/12/16 11:10:18;;;;;;;4.95;3.60;;;9.60;84.80;;;;;;5114047;28;20035;-69
2021/12/16 11:12:54;;;;;;;5.55;3.15;;;9.50;85.00;;;;;;5113793;28;20042;-69
2021/12/16 11:15:44;;;;;;;5.18;3.42;;;9.70;85.90;;;;;;5111791;28;20107;-72
2021/12/16 11:18:10;;;;;;;5.63;3.88;;;10.20;87.70;;;;;;5107765;28;20104;-68
2021/12/16 11:20:53;;;;;;;6.72;4.38;;;10.70;86.50;;;;;;5112303;28;20063;-68
2021/12/16 11:23:32;;;;;;;5.43;4.10;;;11.10;80.60;;;;;;5092348;28;20126;-68
2021/12/16 11:26:01;;;;;;;5.07;4.15;;;11.40;80.40;;;;;;5111946;28;20058;-68
2021/12/16 11:28:39;;;;;;;4.30;3.38;;;11.90;81.50;;;;;;5112218;28;20026;-73
2021/12/16 11:31:15;;;;;;;5.53;3.83;;;12.60;80.10;;;;;;5114398;28;20585;-73
2021/12/16 11:33:50;;;;;;;4.50;3.28;;;12.70;74.50;;;;;;5104558;28;20400;-72
2021/12/16 11:36:32;;;;;;;4.57;3.38;;;12.80;80.00;;;;;;5104165;27;20164;-72
2021/12/16 11:39:04;;;;;;;4.90;3.70;;;13.30;75.70;;;;;;5107927;28;20023;-67
2021/12/16 11:41:45;;;;;;;4.28;3.20;;;13.30;74.90;;;;;;5111714;28;20023;-68
2021/12/16 11:44:23;;;;;;;4.40;3.22;;;13.90;77.50;;;;;;5093249;28;20429;-67
2021/12/16 11:46:56;;;;;;;4.35;3.30;;;13.90;73.10;;;;;;5096764;28;20028;-67
2021/12/16 11:49:25;;;;;;;6.82;3.67;;;14.10;72.90;;;;;;5093164;28;20190;-66
2021/12/16 11:51:59;;;;;;;5.07;3.50;;;14.10;72.10;;;;;;5111488;28;20032;-67
2021/12/16 11:54:35;;;;;;;4.47;3.40;;;13.60;70.60;;;;;;5111337;28;20420;-66
2021/12/16 11:57:18;;;;;;;4.35;3.10;;;13.20;70.40;;;;;;5111501;28;20030;-67
2021/12/16 11:59:56;;;;;;;4.18;3.10;;;13.10;73.10;;;;;;5111393;28;20028;-67
2021/12/16 12:02:32;;;;;;;3.90;3.30;;;13.30;72.50;;;;;;5108024;28;20027;-67
2021/12/16 12:05:16;;;;;;;4.10;3.35;;;13.00;72.10;;;;;;5104033;28;20035;-68
2021/12/16 12:07:45;;;;;;;5.07;3.45;;;12.80;72.10;;;;;;5096027;28;20020;-68
2021/12/16 12:10:11;;;;;;;4.40;3.08;;;12.70;72.30;;;;;;5112925;28;20077;-68
2021/12/16 12:12:46;;;;;;;4.03;3.25;;;12.70;74.70;;;;;;5110428;28;20036;-68
2021/12/16 12:15:16;;;;;;;4.00;2.80;;;12.40;73.50;;;;;;5108833;28;20031;-75
2021/12/16 12:17:52;;;;;;;5.38;2.88;;;12.20;73.20;;;;;;5101635;28;20028;-72
2021/12/16 12:20:24;;;;;;;4.15;2.78;;;12.10;74.30;;;;;;5108593;28;20059;-68
2021/12/16 12:22:52;;;;;;;5.13;2.95;;;12.10;75.00;;;;;;5109987;28;20102;-71
2021/12/16 12:25:19;;;;;;;4.40;3.05;;;12.00;75.30;;;;;;5111212;28;20031;-71
2021/12/16 12:27:45;;;;;;;3.58;2.83;;;12.10;76.60;;;;;;5110407;28;20052;-71
2021/12/16 12:30:11;;;;;;;3.78;2.65;;;12.30;75.10;;;;;;5091842;28;20062;-66
2021/12/16 12:32:40;;;;;;;3.50;2.70;;;12.30;73.80;;;;;;5109758;28;20038;-66
2021/12/16 12:35:07;;;;;;;4.18;2.83;;;12.50;74.30;;;;;;5110679;28;20039;-67
2021/12/16 12:37:36;;;;;;;2.97;2.25;;;12.50;73.00;;;;;;5109612;28;20044;-69
2021/12/16 12:40:20;;;;;;;3.10;2.33;;;12.20;72.00;;;;;;5102222;28;20028;-69
2021/12/16 12:42:46;;;;;;;;;;;12.10;73.70;;;;;;5110857;28;20028;-69
2021/12/16 12:45:15;;;;;;;3.30;2.25;;;11.90;74.30;;;;;;5109978;28;19907;-69
2021/12/16 12:47:45;;;;;;;4.05;2.53;;;11.70;74.30;;;;;;5110076;28;20019;-70
2021/12/16 12:50:19;;;;;;;3.97;2.53;;;11.60;75.30;;;;;;5091834;28;20392;-70
2021/12/16 12:52:50;;;;;;;3.65;2.38;;;11.60;75.80;;;;;;5091618;28;20088;-69
2021/12/16 12:55:20;;;;;;;3.60;2.47;;;11.60;75.40;;;;;;5110952;28;20404;-65
2021/12/16 12:57:47;;;;;;;3.35;2.40;;;11.50;74.40;;;;;;5111196;28;20119;-70
2021/12/16 13:00:31;;;;;;;2.70;2.17;;;11.30;75.40;;;;;;5108319;28;20020;-70
2021/12/16 13:03:10;;;;;;;3.55;2.30;;;11.30;75.80;;;;;;5109430;28;20024;-69
2021/12/16 13:05:37;;;;;;;3.63;2.45;;;11.30;76.70;;;;;;5110178;28;20020;-71
2021/12/16 13:08:11;;;;;;;4.35;2.40;;;11.30;76.50;;;;;;5109765;28;20012;-70
2021/12/16 13:10:48;;;;;;;3.38;2.58;;;11.40;76.40;;;;;;5094114;28;20072;-70
2021/12/16 13:16:14;;;;;;;3.28;2.30;;;11.40;77.60;;;;;;5109199;28;20036;-70
2021/12/16 13:27:00;;;;;;;4.00;2.28;;;11.00;76.10;;;;;;5109734;28;20099;-70
2021/12/16 13:35:10;;;;;;;3.70;2.10;;;10.90;77.30;;;;;;5094131;28;20024;-70
2021/12/16 13:37:42;;;;;;;3.10;1.92;;;10.90;78.20;;;;;;5109886;28;20055;-69
2021/12/16 13:40:26;;;;;;;3.78;1.90;;;11.00;77.60;;;;;;5115296;28;20020;-70
2021/12/16 13:43:15;;;;;;;3.63;2.10;;;11.00;78.00;;;;;;5113834;28;20102;-70
2021/12/16 13:45:57;;;;;;;3.38;2.40;;;11.00;76.90;;;;;;5114943;28;20032;-72
2021/12/16 14:05:46;;;;;;;3.10;1.90;;;10.80;77.00;;;;;;5113423;28;20030;-71
2021/12/16 14:08:26;;;;;;;3.25;2.10;;;10.70;78.00;;;;;;5113239;28;20380;-68
2021/12/16 14:11:00;;;;;;;2.63;1.88;;;10.80;78.10;;;;;;5113447;28;20023;-69
2021/12/16 14:46:44;;;;;;;2.72;2.17;;;10.90;78.10;;;;;;5096101;28;20488;-72
2021/12/16 14:49:10;;;;;;;3.50;2.40;;;10.90;78.10;;;;;;5114186;28;20012;-71
2021/12/16 14:51:36;;;;;;;2.80;2.20;;;10.90;78.00;;;;;;5110301;28;20403;-72
2021/12/16 14:54:03;;;;;;;3.55;2.47;;;10.80;77.80;;;;;;5112090;28;20044;-71
2021/12/16 14:56:32;;;;;;;2.83;1.90;;;10.80;78.00;;;;;;5111948;28;20035;-69
2021/12/16 14:59:06;;;;;;;3.33;2.40;;;10.80;78.50;;;;;;5111970;28;20570;-71
2021/12/16 15:01:37;;;;;;;3.55;2.15;;;10.80;79.10;;;;;;5112378;28;20049;-69
2021/12/16 15:04:06;;;;;;;4.03;2.55;;;10.80;78.80;;;;;;5114016;28;20028;-70
2021/12/16 15:06:42;;;;;;;4.43;2.85;;;10.80;78.50;;;;;;5112144;28;20491;-71
2021/12/16 15:09:17;;;;;;;4.85;2.67;;;10.80;78.60;;;;;;5111754;28;20111;-73
2021/12/16 15:40:30;;;;;;;3.88;2.47;;;10.70;78.50;;;;;;5030024;28;20476;-70
2021/12/16 15:42:58;;;;;;;3.33;2.53;;;10.70;79.00;;;;;;5030672;28;20063;-70
2021/12/16 15:45:27;;;;;;;4.30;2.38;;;10.70;78.90;;;;;;5030058;28;20042;-70
2021/12/16 15:48:00;;;;;;;4.72;2.92;;;10.70;78.80;;;;;;5029829;28;20040;-71
2021/12/16 15:50:27;;;;;;;4.78;2.50;;;10.70;78.80;;;;;;5029547;28;20185;-69
2021/12/16 15:52:54;;;;;;;4.07;2.75;;;10.70;79.20;;;;;;5117592;27;20103;-68
2021/12/16 15:55:29;;;;;;;5.07;2.80;;;10.70;79.30;;;;;;5111508;28;20113;-67
2021/12/16 15:58:00;;;;;;;5.88;2.92;;;10.70;78.80;;;;;;5093159;28;20062;-71
2021/12/16 16:00:27;;;;;;;4.03;2.50;;;10.80;79.20;;;;;;5110587;28;20035;-69
2021/12/16 16:02:56;;;;;;;3.30;2.25;;;10.80;79.10;;;;;;5110709;28;20026;-72
2021/12/16 16:05:22;;;;;;;3.38;2.10;;;10.80;79.20;;;;;;5110832;28;20028;-71
2021/12/16 16:07:48;;;;;;;4.03;2.53;;;10.80;79.00;;;;;;5110770;28;20056;-72
2021/12/16 16:10:15;;;;;;;3.25;2.33;;;10.90;79.10;;;;;;5112066;28;20023;-75
2021/12/16 16:12:42;;;;;;;4.35;2.55;;;10.90;78.90;;;;;;5111323;28;20035;-67
2021/12/16 16:15:18;;;;;;;3.33;2.38;;;10.90;78.90;;;;;;5110774;28;20027;-66
2021/12/16 16:18:00;;;;;;;3.30;2.08;;;10.90;78.80;;;;;;5092160;28;20077;-66
2021/12/16 16:20:32;;;;;;;4.75;2.30;;;10.90;78.90;;;;;;5092408;28;20088;-66
2021/12/16 16:23:05;;;;;;;3.75;2.50;;;10.90;78.80;;;;;;5109636;28;20028;-66
2021/12/16 16:25:31;;;;;;;4.85;2.67;;;10.80;79.50;;;;;;5110635;28;20125;-66
2021/12/16 16:27:57;;;;;;;2.47;1.98;;;10.80;78.90;;;;;;5112634;28;20032;-66
2021/12/16 16:30:24;;;;;;;3.63;2.25;;;10.80;79.00;;;;;;5092395;28;20023;-66
2021/12/16 16:33:05;;;;;;;4.07;2.35;;;10.80;78.90;;;;;;5109933;28;20074;-65
2021/12/16 16:35:32;;;;;;;3.58;2.47;;;10.80;79.00;;;;;;5091902;28;20038;-66
2021/12/16 16:38:16;;;;;;;4.30;2.20;;;10.90;79.20;;;;;;5110174;28;20012;-66
2021/12/16 16:40:44;;;;;;;;;;;10.90;79.10;;;;;;5095317;28;20027;-67
2021/12/16 16:43:32;;;;;;;2.80;2.20;;;10.90;79.20;;;;;;5111478;28;19976;-66
2021/12/16 16:46:03;;;;;;;3.08;2.22;;;10.90;79.10;;;;;;5111226;28;20551;-66
2021/12/16 16:48:54;;;;;;;3.92;2.28;;;10.90;79.00;;;;;;5108685;28;20027;-66
2021/12/16 16:51:25;;;;;;;4.50;2.67;;;10.90;78.90;;;;;;5109659;28;20024;-65
2021/12/16 16:54:01;;;;;;;3.75;2.47;;;10.90;78.90;;;;;;5109219;28;20480;-64
2021/12/16 16:56:57;;;;;;;4.55;2.63;;;10.90;78.70;;;;;;5110132;28;20051;-64
2021/12/16 16:59:34;;;;;;;3.17;2.42;;;10.90;78.90;;;;;;5109920;28;20084;-66
2021/12/16 17:02:02;;;;;;;4.10;2.65;;;10.90;79.20;;;;;;5109958;28;20023;-65
2021/12/16 17:04:32;;;;;;;5.05;2.80;;;10.90;79.20;;;;;;5109363;28;20034;-66
2021/12/16 17:06:59;;;;;;;3.92;2.65;;;10.90;78.90;;;;;;5093327;28;20020;-65
2021/12/16 17:09:34;;;;;;;3.78;2.83;;;10.90;78.80;;;;;;5109604;28;20051;-65
2021/12/16 17:12:05;;;;;;;3.70;2.92;;;10.90;78.70;;;;;;5109845;28;20038;-66
2021/12/16 17:14:37;;;;;;;3.45;2.78;;;10.90;78.70;;;;;;5090675;28;20085;-66
2021/12/16 17:17:20;;;;;;;4.22;2.80;;;10.90;78.80;;;;;;5109825;28;20030;-66
2021/12/16 17:20:01;;;;;;;4.85;2.80;;;10.90;78.90;;;;;;5094905;28;20024;-66
2021/12/16 17:22:50;;;;;;;4.72;2.80;;;11.00;78.80;;;;;;5109520;28;20038;-66
2021/12/16 17:25:18;;;;;;;5.45;3.10;;;10.90;78.80;;;;;;5126054;28;20502;-66